FAS weather

Fáskrúðsfjörður Airport
Fáskrúðsfjörður, Eastern Region, Iceland

Public forecast

Using degrees Celsius for public forecast. Weather courtesy of forecast.io.

Closest aviation weather report (METAR) to Fáskrúðsfjörður Airport

Closest report is Egilsstaðir Airport, 22.8 nm (42.2 km) NNW. Retrieved 2020/05/25 11:00 UTC (5 minutes ago):

BIEG 251100Z 19010KT 9999 FEW025 SCT040 BKN080 12/04 Q0997

Closest aviation forecast (TAF) to Fáskrúðsfjörður Airport

Closest forecast is Egilsstaðir Airport, 22.8 nm (42.2 km) NNW. Retrieved 2020/05/25 09:00 UTC (2 hours ago):

TAF BIEG 250759Z 2509/2609 19010KT 9999 SCT040 TX12/2516Z TN06/2606Z PROB40 TEMPO 2511/2515 SHRA BKN025 BECMG 2514/2516 20020KT BECMG 2603/2605 20025G35KT